Quiberon — FNQY — position and weather

sailwx.info

Track history (hours):
 
Tides and Currents Weather Stations Pressure Air Temp Water Temp Dewpoint Dewpoint Depression Visibility Wind Speed Wind Dir Waves Ship Positions

Quiberon

Operator: Brittany Ferries

Last reported at 2019-Feb-16 03:24 UTC. Time now 2019-Feb-16 04:00 UTC.
Position N 44°53' W 000°32'.

Length 25 m; draft 4.8 m.

Type: Tug. MMSI: 228296800.

Date/timePositionNaut miles runAvg speedWind from/ knotsBaromVisibWave heightAir tempDewpointWater temp
2019-Feb-16 03:24N 44°53' W 000°32'2 0.1
2019-Feb-15 03:54N 44°55' W 000°33'7 8.2
2019-Feb-15 03:04N 45°02' W 000°36'0 9.2
2019-Feb-15 03:00N 45°02' W 000°36'3010.6
2019-Feb-15 00:11N 45°29' W 000°56'612.0
2019-Feb-14 23:41N 45°33' W 001°02'312.4
2019-Feb-14 23:29N 45°35' W 001°03'612.1
2019-Feb-14 22:59N 45°39' W 001°10'10 9.9
2019-Feb-14 21:56N 45°39' W 001°25'510.5
2019-Feb-14 21:29N 45°43' W 001°29'5 9.7
2019-Feb-14 20:55N 45°47' W 001°33'810.6
2019-Feb-14 20:11N 45°53' W 001°40'210.6
2019-Feb-14 20:00N 45°55' W 001°42'510.5
2019-Feb-14 19:30N 45°59' W 001°46'710.4
2019-Feb-14 18:50N 46°05' W 001°52'310.5
2019-Feb-14 18:30N 46°07' W 001°55'510.5
2019-Feb-14 18:00N 46°12' W 001°60'510.5
2019-Feb-14 17:30N 46°16' W 002°04'910.4
2019-Feb-14 16:41N 46°23' W 002°12'1010.1
2019-Feb-14 15:42N 46°30' W 002°20'210.3
2019-Feb-14 15:30N 46°32' W 002°22'610.2
2019-Feb-14 14:56N 46°36' W 002°28'410.2
2019-Feb-14 14:30N 46°40' W 002°32'510.3
2019-Feb-14 14:00N 46°44' W 002°37'510.3
2019-Feb-14 13:30N 46°48' W 002°42'510.4
2019-Feb-14 12:59N 46°52' W 002°46'510.4
2019-Feb-14 12:30N 46°56' W 002°51'510.5
2019-Feb-14 12:00N 46°60' W 002°56'510.7
2019-Feb-14 11:29N 47°04' W 003°01'510.1
2019-Feb-14 11:00N 47°08' W 003°06'510.4
2019-Feb-14 10:30N 47°11' W 003°11'510.5
2019-Feb-14 10:00N 47°15' W 003°16'510.0
2019-Feb-14 09:29N 47°20' W 003°19'510.5
2019-Feb-14 09:00N 47°25' W 003°20'510.5
2019-Feb-14 08:30N 47°30' W 003°21'510.4
2019-Feb-14 08:00N 47°36' W 003°22'5 8.8
2019-Feb-14 07:28N 47°40' W 003°24'3 6.8
2019-Feb-14 06:58N 47°43' W 003°22'1 1.1
2019-Feb-14 06:29N 47°44' W 003°22'0 0.0
2019-Feb-14 05:58N 47°44' W 003°22'0 0.0
2019-Feb-14 05:30N 47°44' W 003°22'0 0.0
2019-Feb-14 04:59N 47°44' W 003°22'0 0.0
2019-Feb-14 04:29N 47°44' W 003°22'0 0.0
2019-Feb-14 03:59N 47°44' W 003°22'0 0.0
2019-Feb-14 03:00N 47°44' W 003°22'0 0.0
2019-Feb-14 02:30N 47°44' W 003°22'0 0.0
2019-Feb-14 02:00N 47°44' W 003°22'0 0.0
2019-Feb-14 01:30N 47°44' W 003°22'0 0.0
2019-Feb-14 00:57N 47°44' W 003°22'0 0.0
2019-Feb-14 00:28N 47°44' W 003°22'0 0.0
2019-Feb-13 23:59N 47°44' W 003°22'0 0.0
2019-Feb-13 23:28N 47°44' W 003°22'0 0.0
2019-Feb-13 23:00N 47°44' W 003°22'0 0.0
2019-Feb-13 22:30N 47°44' W 003°22'0 0.0
2019-Feb-13 22:00N 47°44' W 003°22'0 0.0
2019-Feb-13 21:30N 47°44' W 003°22'0 0.0
2019-Feb-13 21:00N 47°44' W 003°22'0 0.0
2019-Feb-13 20:30N 47°44' W 003°22'0 0.0
2019-Feb-13 20:00N 47°44' W 003°22'0 0.0
2019-Feb-13 19:30N 47°44' W 003°22'0 0.0
2019-Feb-13 19:00N 47°44' W 003°22'0 0.0
2019-Feb-13 18:30N 47°44' W 003°22'0 0.0
2019-Feb-13 18:00N 47°44' W 003°22'0 0.0
2019-Feb-13 17:30N 47°44' W 003°22'0 0.0
2019-Feb-13 17:00N 47°44' W 003°22'0 0.0
2019-Feb-13 16:30N 47°44' W 003°22'0 0.3
2019-Feb-13 16:00N 47°44' W 003°22'0 0.0
2019-Feb-13 15:30N 47°44' W 003°22'0 0.0
2019-Feb-13 15:00N 47°44' W 003°22'0 0.0
2019-Feb-13 14:28N 47°44' W 003°22'0 0.0
2019-Feb-13 14:00N 47°44' W 003°22'0 0.0
2019-Feb-13 13:30N 47°44' W 003°22'0 0.3
2019-Feb-13 13:00N 47°44' W 003°22'0 0.0
2019-Feb-13 12:30N 47°44' W 003°22'0 0.0
2019-Feb-13 12:00N 47°44' W 003°22'0 0.0
2019-Feb-13 11:30N 47°44' W 003°22'0 0.6
2019-Feb-13 11:00N 47°44' W 003°22'0 0.0
2019-Feb-13 10:30N 47°44' W 003°22'0 0.0
2019-Feb-13 10:00N 47°44' W 003°22'0 0.1
2019-Feb-13 09:30N 47°44' W 003°22'0 0.1
2019-Feb-13 09:00N 47°44' W 003°22'0 0.0
2019-Feb-13 08:30N 47°44' W 003°22'0 0.0
2019-Feb-13 08:00N 47°44' W 003°22'0 0.0
2019-Feb-13 07:30N 47°44' W 003°22'0 0.0
2019-Feb-13 07:00N 47°44' W 003°22'0 0.0
2019-Feb-13 06:30N 47°44' W 003°22'0 0.0
2019-Feb-13 06:00N 47°44' W 003°22'0 0.0
2019-Feb-13 05:30N 47°44' W 003°22'0 0.0
2019-Feb-13 05:00N 47°44' W 003°22'0 0.0
2019-Feb-13 04:30N 47°44' W 003°22'0 0.0
2019-Feb-13 04:00N 47°44' W 003°22'0 0.0
2019-Feb-13 03:30N 47°44' W 003°22'0 0.0
2019-Feb-13 03:00N 47°44' W 003°22'0 0.0
2019-Feb-13 02:30N 47°44' W 003°22'0 0.1
2019-Feb-13 02:00N 47°44' W 003°22'0 0.1
2019-Feb-13 01:30N 47°44' W 003°22'0 0.0
2019-Feb-13 01:00N 47°44' W 003°22'0 0.0
2019-Feb-13 00:30N 47°44' W 003°22'0 0.0
2019-Feb-13 00:00N 47°44' W 003°22'0 0.0
2019-Feb-12 23:30N 47°44' W 003°22'0 0.0
2019-Feb-12 23:00N 47°44' W 003°22'0 0.0
2019-Feb-12 22:30N 47°44' W 003°22'0 0.0
2019-Feb-12 22:00N 47°44' W 003°22'0 0.0
2019-Feb-12 21:30N 47°44' W 003°22'0 0.0
2019-Feb-12 21:00N 47°44' W 003°22'0 0.0
2019-Feb-12 20:30N 47°44' W 003°22'0 0.0
2019-Feb-12 20:00N 47°44' W 003°22'0 0.1
2019-Feb-12 19:30N 47°44' W 003°22'0 0.1
2019-Feb-12 19:00N 47°44' W 003°22'0 0.0
2019-Feb-12 18:30N 47°44' W 003°22'0 0.0
2019-Feb-12 18:00N 47°44' W 003°22'0 0.0
2019-Feb-12 17:30N 47°44' W 003°22'0 0.0
2019-Feb-12 17:00N 47°44' W 003°22'0 0.0
2019-Feb-12 16:30N 47°44' W 003°22'0 0.0
2019-Feb-12 16:00N 47°44' W 003°22'0 0.0
2019-Feb-12 15:30N 47°44' W 003°22'0 0.0
2019-Feb-12 15:00N 47°44' W 003°22'0 0.0
2019-Feb-12 14:30N 47°44' W 003°22'0 0.0
2019-Feb-12 14:00N 47°44' W 003°22'0 0.0
2019-Feb-12 13:30N 47°44' W 003°22'0 0.0
2019-Feb-12 13:00N 47°44' W 003°22'0 0.0
2019-Feb-12 12:30N 47°44' W 003°22'0 0.0
2019-Feb-12 12:00N 47°44' W 003°22'0 0.0
2019-Feb-12 11:30N 47°44' W 003°22'0 0.0
2019-Feb-12 11:00N 47°44' W 003°22'0 0.0
2019-Feb-12 10:30N 47°44' W 003°22'0 0.0
2019-Feb-12 10:00N 47°44' W 003°22'0 0.0
2019-Feb-12 09:30N 47°44' W 003°22'0 0.0
2019-Feb-12 09:00N 47°44' W 003°22'0 0.0
2019-Feb-12 08:30N 47°44' W 003°22'0 0.0
2019-Feb-12 08:00N 47°44' W 003°22'0 0.0
2019-Feb-12 07:30N 47°44' W 003°22'0 0.0
2019-Feb-12 07:00N 47°44' W 003°22'0 0.0
2019-Feb-12 06:30N 47°44' W 003°22'0 0.0
2019-Feb-12 06:00N 47°44' W 003°22'0 0.0
2019-Feb-12 05:30N 47°44' W 003°22'0 0.0
2019-Feb-12 05:00N 47°44' W 003°22'0 0.0
2019-Feb-12 04:30N 47°44' W 003°22'0 0.0
2019-Feb-12 04:00N 47°44' W 003°22'0 0.0
2019-Feb-12 03:30N 47°44' W 003°22'0 0.0
2019-Feb-12 03:00N 47°44' W 003°22'0 0.0
2019-Feb-12 02:30N 47°44' W 003°22'0 0.0
2019-Feb-12 02:00N 47°44' W 003°22'0 0.0
2019-Feb-12 01:30N 47°44' W 003°22'0 0.0
2019-Feb-12 01:00N 47°44' W 003°22'0 0.0
2019-Feb-12 00:30N 47°44' W 003°22'0 0.0
2019-Feb-12 00:00N 47°44' W 003°22'0 0.0
2019-Feb-11 23:30N 47°44' W 003°22'0 0.0
2019-Feb-11 23:00N 47°44' W 003°22'0 0.0
2019-Feb-11 22:30N 47°44' W 003°22'0 0.0
2019-Feb-11 22:00N 47°44' W 003°22'0 0.0
2019-Feb-11 21:30N 47°44' W 003°22'0 0.0
2019-Feb-11 21:00N 47°44' W 003°22'0 0.0
2019-Feb-11 20:30N 47°44' W 003°22'0 0.0
2019-Feb-11 20:00N 47°44' W 003°22'0 0.0
2019-Feb-11 19:30N 47°44' W 003°22'0 0.0
2019-Feb-11 19:00N 47°44' W 003°22'0 0.0
2019-Feb-11 18:30N 47°44' W 003°22'0 0.0
2019-Feb-11 18:00N 47°44' W 003°22'0 0.0
2019-Feb-11 17:30N 47°44' W 003°22'0 0.0
2019-Feb-11 17:00N 47°44' W 003°22'0 0.0
2019-Feb-11 16:30N 47°44' W 003°22'0 0.0
2019-Feb-11 16:00N 47°44' W 003°22'0 0.0
2019-Feb-11 15:30N 47°44' W 003°22'0 0.0
2019-Feb-11 15:00N 47°44' W 003°22'0 0.0
2019-Feb-11 14:30N 47°44' W 003°22'0 0.0
2019-Feb-11 14:00N 47°44' W 003°22'0 0.0
2019-Feb-11 13:30N 47°44' W 003°22'0 0.0
2019-Feb-11 13:00N 47°44' W 003°22'0 0.0
2019-Feb-11 12:30N 47°44' W 003°22'0 0.0
2019-Feb-11 12:00N 47°44' W 003°22'0 0.0
2019-Feb-11 11:30N 47°44' W 003°22'0 0.0
2019-Feb-11 11:00N 47°44' W 003°22'0 0.0
2019-Feb-11 10:30N 47°44' W 003°22'0 0.0
2019-Feb-11 10:00N 47°44' W 003°22'0 0.0
2019-Feb-11 09:30N 47°44' W 003°22'0 0.0
2019-Feb-11 09:00N 47°44' W 003°22'0 0.0
2019-Feb-11 08:30N 47°44' W 003°22'0 0.0
2019-Feb-11 08:00N 47°44' W 003°22'0 0.0
2019-Feb-11 07:30N 47°44' W 003°22'0 0.0
2019-Feb-11 07:00N 47°44' W 003°22'0 0.0
2019-Feb-11 06:30N 47°44' W 003°22'0 0.0
2019-Feb-11 06:00N 47°44' W 003°22'0 0.0
2019-Feb-11 05:30N 47°44' W 003°22'0 0.0
2019-Feb-11 05:00N 47°44' W 003°22'0 0.0
2019-Feb-11 04:30N 47°44' W 003°22'0 0.0
2019-Feb-11 04:00N 47°44' W 003°22'0 0.0
2019-Feb-11 03:30N 47°44' W 003°22'0 0.0
2019-Feb-11 03:00N 47°44' W 003°22'0 0.0
2019-Feb-11 02:30N 47°44' W 003°22'0 0.0
2019-Feb-11 02:00N 47°44' W 003°22'0 0.0
2019-Feb-11 01:30N 47°44' W 003°22'0 0.0
2019-Feb-11 01:00N 47°44' W 003°22'0 0.0
2019-Feb-11 00:30N 47°44' W 003°22'0 0.0
2019-Feb-11 00:00N 47°44' W 003°22'0 0.0
2019-Feb-10 23:30N 47°44' W 003°22'0 0.0
2019-Feb-10 23:00N 47°44' W 003°22'0 0.0
2019-Feb-10 22:30N 47°44' W 003°22'0 0.0
2019-Feb-10 22:00N 47°44' W 003°22'0 0.0
2019-Feb-10 21:30N 47°44' W 003°22'0 0.0
2019-Feb-10 21:00N 47°44' W 003°22'0 0.0
2019-Feb-10 20:30N 47°44' W 003°22'0 0.0
2019-Feb-10 20:00N 47°44' W 003°22'0 0.0
2019-Feb-10 19:30N 47°44' W 003°22'0 0.0
2019-Feb-10 19:00N 47°44' W 003°22'0 0.0
2019-Feb-10 18:30N 47°44' W 003°22'0 0.0
2019-Feb-10 18:00N 47°44' W 003°22'0 0.0
2019-Feb-10 17:30N 47°44' W 003°22'0 0.0
2019-Feb-10 17:00N 47°44' W 003°22'0 0.0
2019-Feb-10 16:30N 47°44' W 003°22'0 0.0
2019-Feb-10 16:00N 47°44' W 003°22'0 0.0
2019-Feb-10 15:30N 47°44' W 003°22'0 0.0
2019-Feb-10 15:00N 47°44' W 003°22'0 0.0
2019-Feb-10 14:30N 47°44' W 003°22'0 0.0
2019-Feb-10 14:00N 47°44' W 003°22'0 0.0
2019-Feb-10 13:30N 47°44' W 003°22'0 0.0
2019-Feb-10 13:00N 47°44' W 003°22'0 0.0
2019-Feb-10 12:30N 47°44' W 003°22'0 0.0
2019-Feb-10 12:00N 47°44' W 003°22'0 0.0
2019-Feb-10 11:30N 47°44' W 003°22'0 0.0
2019-Feb-10 11:00N 47°44' W 003°22'0 0.0
2019-Feb-10 10:30N 47°44' W 003°22'0 0.0
2019-Feb-10 10:00N 47°44' W 003°22'0 0.0
2019-Feb-10 09:30N 47°44' W 003°22'0 0.0
2019-Feb-10 09:00N 47°44' W 003°22'0 0.0
2019-Feb-10 08:30N 47°44' W 003°22'0 0.0
2019-Feb-10 08:00N 47°44' W 003°22'0 0.0
2019-Feb-10 07:30N 47°44' W 003°22'0 0.0
2019-Feb-10 07:00N 47°44' W 003°22'0 0.0
2019-Feb-10 06:30N 47°44' W 003°22'0 0.0
2019-Feb-10 06:00N 47°44' W 003°22'0 0.0
2019-Feb-10 05:30N 47°44' W 003°22'0 0.0
2019-Feb-10 05:00N 47°44' W 003°22'0 0.0
2019-Feb-10 04:30N 47°44' W 003°22'0 0.0
2019-Feb-10 04:00N 47°44' W 003°22'0 0.0
2019-Feb-10 03:30N 47°44' W 003°22'0 0.0
2019-Feb-10 03:00N 47°44' W 003°22'0 0.0
2019-Feb-10 02:30N 47°44' W 003°22'0 0.0
2019-Feb-10 02:00N 47°44' W 003°22'0 0.0
2019-Feb-10 01:30N 47°44' W 003°22'0 0.0
2019-Feb-10 01:00N 47°44' W 003°22'0 0.0
2019-Feb-10 00:30N 47°44' W 003°22'0 0.0
2019-Feb-10 00:00N 47°44' W 003°22'0 0.0
2019-Feb-09 23:30N 47°44' W 003°22'0 0.0
2019-Feb-09 23:00N 47°44' W 003°22'0 0.0
2019-Feb-09 22:30N 47°44' W 003°22'0 0.0
2019-Feb-09 22:00N 47°44' W 003°22'0 0.0
2019-Feb-09 21:30N 47°44' W 003°22'0 0.0
2019-Feb-09 21:00N 47°44' W 003°22'0 0.0
2019-Feb-09 20:30N 47°44' W 003°22'0 0.0
2019-Feb-09 20:00N 47°44' W 003°22'0 0.0
2019-Feb-09 19:30N 47°44' W 003°22'0 0.0
2019-Feb-09 19:00N 47°44' W 003°22'0 0.0
2019-Feb-09 18:30N 47°44' W 003°22'0 0.0
2019-Feb-09 18:00N 47°44' W 003°22'0 0.0
2019-Feb-09 17:30N 47°44' W 003°22'0 0.0
2019-Feb-09 17:00N 47°44' W 003°22'0 0.0
2019-Feb-09 16:30N 47°44' W 003°22'0 0.0
2019-Feb-09 16:00N 47°44' W 003°22'0 0.0
2019-Feb-09 15:30N 47°44' W 003°22'0 0.0
2019-Feb-09 15:00N 47°44' W 003°22'0 0.0
2019-Feb-09 14:30N 47°44' W 003°22'0 0.0
2019-Feb-09 14:00N 47°44' W 003°22'0 0.0
2019-Feb-09 13:30N 47°44' W 003°22'0 0.0
2019-Feb-09 13:00N 47°44' W 003°22'0 0.0
2019-Feb-09 12:30N 47°44' W 003°22'0 0.0
2019-Feb-09 12:00N 47°44' W 003°22'0 0.0
2019-Feb-09 11:30N 47°44' W 003°22'0 0.0
2019-Feb-09 11:00N 47°44' W 003°22'0 0.0
2019-Feb-09 10:30N 47°44' W 003°22'0 0.0
2019-Feb-09 10:00N 47°44' W 003°22'0 0.0
2019-Feb-09 09:30N 47°44' W 003°22'0 0.0
2019-Feb-09 09:00N 47°44' W 003°22'0 0.0
2019-Feb-09 08:30N 47°44' W 003°22'0 0.0
2019-Feb-09 08:00N 47°44' W 003°22'0 0.0
2019-Feb-09 07:30N 47°44' W 003°22'0 0.0
2019-Feb-09 07:00N 47°44' W 003°22'0 0.0
2019-Feb-09 06:30N 47°44' W 003°22'0 0.0
2019-Feb-09 06:00N 47°44' W 003°22'0 0.0
2019-Feb-09 05:30N 47°44' W 003°22'0 0.0
2019-Feb-09 05:00N 47°44' W 003°22'0 0.0
2019-Feb-09 04:30N 47°44' W 003°22'0 0.0
2019-Feb-09 04:00N 47°44' W 003°22'0 0.0
2019-Feb-09 03:30N 47°44' W 003°22'0 0.0
2019-Feb-09 03:00N 47°44' W 003°22'0 0.0
2019-Feb-09 02:30N 47°44' W 003°22'0 0.0
2019-Feb-09 02:00N 47°44' W 003°22'0 0.0
2019-Feb-09 01:30N 47°44' W 003°22'0 0.0
2019-Feb-09 01:00N 47°44' W 003°22'0 0.0
2019-Feb-09 00:30N 47°44' W 003°22'0 0.0
2019-Feb-09 00:00N 47°44' W 003°22'0 0.0
2019-Feb-08 23:30N 47°44' W 003°22'0 0.0
2019-Feb-08 23:00N 47°44' W 003°22'0 0.0
2019-Feb-08 22:30N 47°44' W 003°22'0 0.0
2019-Feb-08 22:00N 47°44' W 003°22'0 0.0
2019-Feb-08 21:30N 47°44' W 003°22'0 0.0
2019-Feb-08 21:00N 47°44' W 003°22'0 0.0
2019-Feb-08 20:30N 47°44' W 003°22'0 0.0
2019-Feb-08 20:00N 47°44' W 003°22'0 0.0
2019-Feb-08 19:30N 47°44' W 003°22'0 0.0
2019-Feb-08 19:00N 47°44' W 003°22'0 0.0
2019-Feb-08 18:30N 47°44' W 003°22'0 0.0
2019-Feb-08 18:00N 47°44' W 003°22'0 0.0
2019-Feb-08 17:30N 47°44' W 003°22'0 0.0
2019-Feb-08 17:00N 47°44' W 003°22'0 0.0
2019-Feb-08 16:30N 47°44' W 003°22'0 0.0
2019-Feb-08 16:00N 47°44' W 003°22'0 0.0
2019-Feb-08 15:30N 47°44' W 003°22'0 0.0
2019-Feb-08 15:00N 47°44' W 003°22'0 0.0
2019-Feb-08 14:30N 47°44' W 003°22'0 0.0
2019-Feb-08 14:00N 47°44' W 003°22'0 0.0
2019-Feb-08 13:30N 47°44' W 003°22'0 0.0
2019-Feb-08 13:00N 47°44' W 003°22'0 0.0
2019-Feb-08 12:30N 47°44' W 003°22'0 0.0
2019-Feb-08 12:00N 47°44' W 003°22'0 0.0
2019-Feb-08 11:30N 47°44' W 003°22'0 0.0
2019-Feb-08 11:00N 47°44' W 003°22'0 0.0
2019-Feb-08 10:30N 47°44' W 003°22'0 0.0
2019-Feb-08 10:00N 47°44' W 003°22'0 0.0
2019-Feb-08 09:30N 47°44' W 003°22'0 0.0
2019-Feb-08 09:00N 47°44' W 003°22'0 0.0
2019-Feb-08 08:30N 47°44' W 003°22'0 0.0
2019-Feb-07 16:44N 47°44' W 003°22'0 0.0
2019-Feb-07 16:30N 47°44' W 003°22'0 0.0
2019-Feb-07 16:00N 47°44' W 003°22'0 0.0
2019-Feb-07 08:17N 47°44' W 003°22'0 0.1
2019-Feb-07 08:01N 47°44' W 003°22'0 0.1
2019-Feb-07 07:31N 47°44' W 003°22'0 0.0
2019-Feb-07 07:00N 47°44' W 003°22'0 0.0
2019-Feb-07 06:31N 47°44' W 003°22'0 0.0
2019-Feb-07 06:01N 47°44' W 003°22'0 0.0
2019-Feb-07 05:31N 47°44' W 003°22'0 0.0
2019-Feb-07 05:01N 47°44' W 003°22'0 0.0
2019-Feb-07 04:31N 47°44' W 003°22'0 0.0
2019-Feb-07 04:01N 47°44' W 003°22'0 0.0
2019-Feb-07 03:31N 47°44' W 003°22'0 0.0
2019-Feb-07 03:01N 47°44' W 003°22'0 0.0
2019-Feb-07 02:30N 47°44' W 003°22'0 0.0
2019-Feb-07 02:01N 47°44' W 003°22'0 0.0
2019-Feb-07 01:30N 47°44' W 003°22'0 0.0
2019-Feb-07 01:01N 47°44' W 003°22'0 0.0
2019-Feb-07 00:31N 47°44' W 003°22'0 0.0
2019-Feb-07 00:01N 47°44' W 003°22'0 0.0
2019-Feb-06 23:31N 47°44' W 003°22'0 0.0
2019-Feb-06 23:00N 47°44' W 003°22'0 0.0
2019-Feb-06 22:30N 47°44' W 003°22'0 0.0
2019-Feb-06 22:01N 47°44' W 003°22'0 0.0
2019-Feb-06 21:31N 47°44' W 003°22'0 0.0
2019-Feb-06 21:01N 47°44' W 003°22'0 0.0
2019-Feb-06 20:31N 47°44' W 003°22'0 0.0
2019-Feb-06 20:01N 47°44' W 003°22'0 0.0
2019-Feb-06 19:31N 47°44' W 003°22'0 0.0
2019-Feb-06 19:01N 47°44' W 003°22'0 0.0
2019-Feb-06 18:31N 47°44' W 003°22'0 0.0
2019-Feb-06 18:01N 47°44' W 003°22'0 0.0
2019-Feb-06 17:31N 47°44' W 003°22'0 0.0
2019-Feb-06 17:01N 47°44' W 003°22'0 0.0
2019-Feb-06 16:31N 47°44' W 003°22'0 0.0
2019-Feb-06 16:01N 47°44' W 003°22'0 0.0
2019-Feb-06 15:30N 47°44' W 003°22'0 0.0
2019-Feb-06 15:01N 47°44' W 003°22'0 0.0
2019-Feb-06 14:31N 47°44' W 003°22'0 0.0
2019-Feb-06 14:01N 47°44' W 003°22'0 0.0
2019-Feb-06 13:30N 47°44' W 003°22'0 0.0
2019-Feb-06 13:01N 47°44' W 003°22'0 0.0
2019-Feb-06 12:31N 47°44' W 003°22'0 0.0
2019-Feb-06 12:01N 47°44' W 003°22'0 0.0
2019-Feb-06 11:31N 47°44' W 003°22'0 0.0
2019-Feb-06 11:01N 47°44' W 003°22'0 0.0
2019-Feb-06 10:31N 47°44' W 003°22'0 0.0
2019-Feb-06 10:01N 47°44' W 003°22'0 0.0
2019-Feb-06 09:31N 47°44' W 003°22'0 0.0
2019-Feb-06 09:00N 47°44' W 003°22'0 0.0
2019-Feb-06 08:30N 47°44' W 003°22'0 0.0
2019-Feb-06 08:00N 47°44' W 003°22'0 0.0
2019-Feb-06 07:30N 47°44' W 003°22'0 0.0
2019-Feb-06 07:00N 47°44' W 003°22'0 0.0
2019-Feb-06 06:30N 47°44' W 003°22'0 0.0
2019-Feb-06 06:00N 47°44' W 003°22'0 0.0
2019-Feb-06 05:31N 47°44' W 003°22'0 0.0
2019-Feb-06 05:00N 47°44' W 003°22'0 0.0
2019-Feb-06 04:30N 47°44' W 003°22'0 0.0
2019-Feb-06 04:01N 47°44' W 003°22'0 0.0
2019-Feb-06 03:30N 47°44' W 003°22'  
Track history (hours):
 
Tides and Currents Weather Stations Pressure Air Temp Water Temp Dewpoint Dewpoint Depression Visibility Wind Speed Wind Dir Waves Ship Positions

Quiberon

Operator: Brittany Ferries

Last reported at 2019-Feb-16 03:24 UTC. Time now 2019-Feb-16 04:00 UTC.
Position N 44°53' W 000°32'.

Length 25 m; draft 4.8 m.

Type: Tug. MMSI: 228296800.

Date/timePositionNaut miles runAvg speedWind from/ knotsBaromVisibWave heightAir tempDewpointWater temp
2019-Feb-16 03:24N 44°53' W 000°32'2 0.1
2019-Feb-15 03:54N 44°55' W 000°33'7 8.2
2019-Feb-15 03:04N 45°02' W 000°36'0 9.2
2019-Feb-15 03:00N 45°02' W 000°36'3010.6
2019-Feb-15 00:11N 45°29' W 000°56'612.0
2019-Feb-14 23:41N 45°33' W 001°02'312.4
2019-Feb-14 23:29N 45°35' W 001°03'612.1
2019-Feb-14 22:59N 45°39' W 001°10'10 9.9
2019-Feb-14 21:56N 45°39' W 001°25'510.5
2019-Feb-14 21:29N 45°43' W 001°29'5 9.7
2019-Feb-14 20:55N 45°47' W 001°33'810.6
2019-Feb-14 20:11N 45°53' W 001°40'210.6
2019-Feb-14 20:00N 45°55' W 001°42'510.5
2019-Feb-14 19:30N 45°59' W 001°46'710.4
2019-Feb-14 18:50N 46°05' W 001°52'310.5
2019-Feb-14 18:30N 46°07' W 001°55'510.5
2019-Feb-14 18:00N 46°12' W 001°60'510.5
2019-Feb-14 17:30N 46°16' W 002°04'910.4
2019-Feb-14 16:41N 46°23' W 002°12'1010.1
2019-Feb-14 15:42N 46°30' W 002°20'210.3
2019-Feb-14 15:30N 46°32' W 002°22'610.2
2019-Feb-14 14:56N 46°36' W 002°28'410.2
2019-Feb-14 14:30N 46°40' W 002°32'510.3
2019-Feb-14 14:00N 46°44' W 002°37'510.3
2019-Feb-14 13:30N 46°48' W 002°42'510.4
2019-Feb-14 12:59N 46°52' W 002°46'510.4
2019-Feb-14 12:30N 46°56' W 002°51'510.5
2019-Feb-14 12:00N 46°60' W 002°56'510.7
2019-Feb-14 11:29N 47°04' W 003°01'510.1
2019-Feb-14 11:00N 47°08' W 003°06'510.4
2019-Feb-14 10:30N 47°11' W 003°11'510.5
2019-Feb-14 10:00N 47°15' W 003°16'510.0
2019-Feb-14 09:29N 47°20' W 003°19'510.5
2019-Feb-14 09:00N 47°25' W 003°20'510.5
2019-Feb-14 08:30N 47°30' W 003°21'510.4
2019-Feb-14 08:00N 47°36' W 003°22'5 8.8
2019-Feb-14 07:28N 47°40' W 003°24'3 6.8
2019-Feb-14 06:58N 47°43' W 003°22'1 1.1
2019-Feb-14 06:29N 47°44' W 003°22'0 0.0
2019-Feb-14 05:58N 47°44' W 003°22'0 0.0
2019-Feb-14 05:30N 47°44' W 003°22'0 0.0
2019-Feb-14 04:59N 47°44' W 003°22'0 0.0
2019-Feb-14 04:29N 47°44' W 003°22'0 0.0
2019-Feb-14 03:59N 47°44' W 003°22'0 0.0
2019-Feb-14 03:00N 47°44' W 003°22'0 0.0
2019-Feb-14 02:30N 47°44' W 003°22'0 0.0
2019-Feb-14 02:00N 47°44' W 003°22'0 0.0
2019-Feb-14 01:30N 47°44' W 003°22'0 0.0
2019-Feb-14 00:57N 47°44' W 003°22'0 0.0
2019-Feb-14 00:28N 47°44' W 003°22'0 0.0
2019-Feb-13 23:59N 47°44' W 003°22'0 0.0
2019-Feb-13 23:28N 47°44' W 003°22'0 0.0
2019-Feb-13 23:00N 47°44' W 003°22'0 0.0
2019-Feb-13 22:30N 47°44' W 003°22'0 0.0
2019-Feb-13 22:00N 47°44' W 003°22'0 0.0
2019-Feb-13 21:30N 47°44' W 003°22'0 0.0
2019-Feb-13 21:00N 47°44' W 003°22'0 0.0
2019-Feb-13 20:30N 47°44' W 003°22'0 0.0
2019-Feb-13 20:00N 47°44' W 003°22'0 0.0
2019-Feb-13 19:30N 47°44' W 003°22'0 0.0
2019-Feb-13 19:00N 47°44' W 003°22'0 0.0
2019-Feb-13 18:30N 47°44' W 003°22'0 0.0
2019-Feb-13 18:00N 47°44' W 003°22'0 0.0
2019-Feb-13 17:30N 47°44' W 003°22'0 0.0
2019-Feb-13 17:00N 47°44' W 003°22'0 0.0
2019-Feb-13 16:30N 47°44' W 003°22'0 0.3
2019-Feb-13 16:00N 47°44' W 003°22'0 0.0
2019-Feb-13 15:30N 47°44' W 003°22'0 0.0
2019-Feb-13 15:00N 47°44' W 003°22'0 0.0
2019-Feb-13 14:28N 47°44' W 003°22'0 0.0
2019-Feb-13 14:00N 47°44' W 003°22'0 0.0
2019-Feb-13 13:30N 47°44' W 003°22'0 0.3
2019-Feb-13 13:00N 47°44' W 003°22'0 0.0
2019-Feb-13 12:30N 47°44' W 003°22'0 0.0
2019-Feb-13 12:00N 47°44' W 003°22'0 0.0
2019-Feb-13 11:30N 47°44' W 003°22'0 0.6
2019-Feb-13 11:00N 47°44' W 003°22'0 0.0
2019-Feb-13 10:30N 47°44' W 003°22'0 0.0
2019-Feb-13 10:00N 47°44' W 003°22'0 0.1
2019-Feb-13 09:30N 47°44' W 003°22'0 0.1
2019-Feb-13 09:00N 47°44' W 003°22'0 0.0
2019-Feb-13 08:30N 47°44' W 003°22'0 0.0
2019-Feb-13 08:00N 47°44' W 003°22'0 0.0
2019-Feb-13 07:30N 47°44' W 003°22'0 0.0
2019-Feb-13 07:00N 47°44' W 003°22'0 0.0
2019-Feb-13 06:30N 47°44' W 003°22'0 0.0
2019-Feb-13 06:00N 47°44' W 003°22'0 0.0
2019-Feb-13 05:30N 47°44' W 003°22'0 0.0
2019-Feb-13 05:00N 47°44' W 003°22'0 0.0
2019-Feb-13 04:30N 47°44' W 003°22'0 0.0
2019-Feb-13 04:00N 47°44' W 003°22'0 0.0
2019-Feb-13 03:30N 47°44' W 003°22'0 0.0
2019-Feb-13 03:00N 47°44' W 003°22'0 0.0
2019-Feb-13 02:30N 47°44' W 003°22'0 0.1
2019-Feb-13 02:00N 47°44' W 003°22'0 0.1
2019-Feb-13 01:30N 47°44' W 003°22'0 0.0
2019-Feb-13 01:00N 47°44' W 003°22'0 0.0
2019-Feb-13 00:30N 47°44' W 003°22'0 0.0
2019-Feb-13 00:00N 47°44' W 003°22'0 0.0
2019-Feb-12 23:30N 47°44' W 003°22'0 0.0
2019-Feb-12 23:00N 47°44' W 003°22'0 0.0
2019-Feb-12 22:30N 47°44' W 003°22'0 0.0
2019-Feb-12 22:00N 47°44' W 003°22'0 0.0
2019-Feb-12 21:30N 47°44' W 003°22'0 0.0
2019-Feb-12 21:00N 47°44' W 003°22'0 0.0
2019-Feb-12 20:30N 47°44' W 003°22'0 0.0
2019-Feb-12 20:00N 47°44' W 003°22'0 0.1
2019-Feb-12 19:30N 47°44' W 003°22'0 0.1
2019-Feb-12 19:00N 47°44' W 003°22'0 0.0
2019-Feb-12 18:30N 47°44' W 003°22'0 0.0
2019-Feb-12 18:00N 47°44' W 003°22'0 0.0
2019-Feb-12 17:30N 47°44' W 003°22'0 0.0
2019-Feb-12 17:00N 47°44' W 003°22'0 0.0
2019-Feb-12 16:30N 47°44' W 003°22'0 0.0
2019-Feb-12 16:00N 47°44' W 003°22'0 0.0
2019-Feb-12 15:30N 47°44' W 003°22'0 0.0
2019-Feb-12 15:00N 47°44' W 003°22'0 0.0
2019-Feb-12 14:30N 47°44' W 003°22'0 0.0
2019-Feb-12 14:00N 47°44' W 003°22'0 0.0
2019-Feb-12 13:30N 47°44' W 003°22'0 0.0
2019-Feb-12 13:00N 47°44' W 003°22'0 0.0
2019-Feb-12 12:30N 47°44' W 003°22'0 0.0
2019-Feb-12 12:00N 47°44' W 003°22'0 0.0
2019-Feb-12 11:30N 47°44' W 003°22'0 0.0
2019-Feb-12 11:00N 47°44' W 003°22'0 0.0
2019-Feb-12 10:30N 47°44' W 003°22'0 0.0
2019-Feb-12 10:00N 47°44' W 003°22'0 0.0
2019-Feb-12 09:30N 47°44' W 003°22'0 0.0
2019-Feb-12 09:00N 47°44' W 003°22'0 0.0
2019-Feb-12 08:30N 47°44' W 003°22'0 0.0
2019-Feb-12 08:00N 47°44' W 003°22'0 0.0
2019-Feb-12 07:30N 47°44' W 003°22'0 0.0
2019-Feb-12 07:00N 47°44' W 003°22'0 0.0
2019-Feb-12 06:30N 47°44' W 003°22'0 0.0
2019-Feb-12 06:00N 47°44' W 003°22'0 0.0
2019-Feb-12 05:30N 47°44' W 003°22'0 0.0
2019-Feb-12 05:00N 47°44' W 003°22'0 0.0
2019-Feb-12 04:30N 47°44' W 003°22'0 0.0
2019-Feb-12 04:00N 47°44' W 003°22'0 0.0
2019-Feb-12 03:30N 47°44' W 003°22'0 0.0
2019-Feb-12 03:00N 47°44' W 003°22'0 0.0
2019-Feb-12 02:30N 47°44' W 003°22'0 0.0
2019-Feb-12 02:00N 47°44' W 003°22'0 0.0
2019-Feb-12 01:30N 47°44' W 003°22'0 0.0
2019-Feb-12 01:00N 47°44' W 003°22'0 0.0
2019-Feb-12 00:30N 47°44' W 003°22'0 0.0
2019-Feb-12 00:00N 47°44' W 003°22'0 0.0
2019-Feb-11 23:30N 47°44' W 003°22'0 0.0
2019-Feb-11 23:00N 47°44' W 003°22'0 0.0
2019-Feb-11 22:30N 47°44' W 003°22'0 0.0
2019-Feb-11 22:00N 47°44' W 003°22'0 0.0
2019-Feb-11 21:30N 47°44' W 003°22'0 0.0
2019-Feb-11 21:00N 47°44' W 003°22'0 0.0
2019-Feb-11 20:30N 47°44' W 003°22'0 0.0
2019-Feb-11 20:00N 47°44' W 003°22'0 0.0
2019-Feb-11 19:30N 47°44' W 003°22'0 0.0
2019-Feb-11 19:00N 47°44' W 003°22'0 0.0
2019-Feb-11 18:30N 47°44' W 003°22'0 0.0
2019-Feb-11 18:00N 47°44' W 003°22'0 0.0
2019-Feb-11 17:30N 47°44' W 003°22'0 0.0
2019-Feb-11 17:00N 47°44' W 003°22'0 0.0
2019-Feb-11 16:30N 47°44' W 003°22'0 0.0
2019-Feb-11 16:00N 47°44' W 003°22'0 0.0
2019-Feb-11 15:30N 47°44' W 003°22'0 0.0
2019-Feb-11 15:00N 47°44' W 003°22'0 0.0
2019-Feb-11 14:30N 47°44' W 003°22'0 0.0
2019-Feb-11 14:00N 47°44' W 003°22'0 0.0
2019-Feb-11 13:30N 47°44' W 003°22'0 0.0
2019-Feb-11 13:00N 47°44' W 003°22'0 0.0
2019-Feb-11 12:30N 47°44' W 003°22'0 0.0
2019-Feb-11 12:00N 47°44' W 003°22'0 0.0
2019-Feb-11 11:30N 47°44' W 003°22'0 0.0
2019-Feb-11 11:00N 47°44' W 003°22'0 0.0
2019-Feb-11 10:30N 47°44' W 003°22'0 0.0
2019-Feb-11 10:00N 47°44' W 003°22'0 0.0
2019-Feb-11 09:30N 47°44' W 003°22'0 0.0
2019-Feb-11 09:00N 47°44' W 003°22'0 0.0
2019-Feb-11 08:30N 47°44' W 003°22'0 0.0
2019-Feb-11 08:00N 47°44' W 003°22'0 0.0
2019-Feb-11 07:30N 47°44' W 003°22'0 0.0
2019-Feb-11 07:00N 47°44' W 003°22'0 0.0
2019-Feb-11 06:30N 47°44' W 003°22'0 0.0
2019-Feb-11 06:00N 47°44' W 003°22'0 0.0
2019-Feb-11 05:30N 47°44' W 003°22'0 0.0
2019-Feb-11 05:00N 47°44' W 003°22'0 0.0
2019-Feb-11 04:30N 47°44' W 003°22'0 0.0
2019-Feb-11 04:00N 47°44' W 003°22'0 0.0
2019-Feb-11 03:30N 47°44' W 003°22'0 0.0
2019-Feb-11 03:00N 47°44' W 003°22'0 0.0
2019-Feb-11 02:30N 47°44' W 003°22'0 0.0
2019-Feb-11 02:00N 47°44' W 003°22'0 0.0
2019-Feb-11 01:30N 47°44' W 003°22'0 0.0
2019-Feb-11 01:00N 47°44' W 003°22'0 0.0
2019-Feb-11 00:30N 47°44' W 003°22'0 0.0
2019-Feb-11 00:00N 47°44' W 003°22'0 0.0
2019-Feb-10 23:30N 47°44' W 003°22'0 0.0
2019-Feb-10 23:00N 47°44' W 003°22'0 0.0
2019-Feb-10 22:30N 47°44' W 003°22'0 0.0
2019-Feb-10 22:00N 47°44' W 003°22'0 0.0
2019-Feb-10 21:30N 47°44' W 003°22'0 0.0
2019-Feb-10 21:00N 47°44' W 003°22'0 0.0
2019-Feb-10 20:30N 47°44' W 003°22'0 0.0
2019-Feb-10 20:00N 47°44' W 003°22'0 0.0
2019-Feb-10 19:30N 47°44' W 003°22'0 0.0
2019-Feb-10 19:00N 47°44' W 003°22'0 0.0
2019-Feb-10 18:30N 47°44' W 003°22'0 0.0
2019-Feb-10 18:00N 47°44' W 003°22'0 0.0
2019-Feb-10 17:30N 47°44' W 003°22'0 0.0
2019-Feb-10 17:00N 47°44' W 003°22'0 0.0
2019-Feb-10 16:30N 47°44' W 003°22'0 0.0
2019-Feb-10 16:00N 47°44' W 003°22'0 0.0
2019-Feb-10 15:30N 47°44' W 003°22'0 0.0
2019-Feb-10 15:00N 47°44' W 003°22'0 0.0
2019-Feb-10 14:30N 47°44' W 003°22'0 0.0
2019-Feb-10 14:00N 47°44' W 003°22'0 0.0
2019-Feb-10 13:30N 47°44' W 003°22'0 0.0
2019-Feb-10 13:00N 47°44' W 003°22'0 0.0
2019-Feb-10 12:30N 47°44' W 003°22'0 0.0
2019-Feb-10 12:00N 47°44' W 003°22'0 0.0
2019-Feb-10 11:30N 47°44' W 003°22'0 0.0
2019-Feb-10 11:00N 47°44' W 003°22'0 0.0
2019-Feb-10 10:30N 47°44' W 003°22'0 0.0
2019-Feb-10 10:00N 47°44' W 003°22'0 0.0
2019-Feb-10 09:30N 47°44' W 003°22'0 0.0
2019-Feb-10 09:00N 47°44' W 003°22'0 0.0
2019-Feb-10 08:30N 47°44' W 003°22'0 0.0
2019-Feb-10 08:00N 47°44' W 003°22'0 0.0
2019-Feb-10 07:30N 47°44' W 003°22'0 0.0
2019-Feb-10 07:00N 47°44' W 003°22'0 0.0
2019-Feb-10 06:30N 47°44' W 003°22'0 0.0
2019-Feb-10 06:00N 47°44' W 003°22'0 0.0
2019-Feb-10 05:30N 47°44' W 003°22'0 0.0
2019-Feb-10 05:00N 47°44' W 003°22'0 0.0
2019-Feb-10 04:30N 47°44' W 003°22'0 0.0
2019-Feb-10 04:00N 47°44' W 003°22'0 0.0
2019-Feb-10 03:30N 47°44' W 003°22'0 0.0
2019-Feb-10 03:00N 47°44' W 003°22'0 0.0
2019-Feb-10 02:30N 47°44' W 003°22'0 0.0
2019-Feb-10 02:00N 47°44' W 003°22'0 0.0
2019-Feb-10 01:30N 47°44' W 003°22'0 0.0
2019-Feb-10 01:00N 47°44' W 003°22'0 0.0
2019-Feb-10 00:30N 47°44' W 003°22'0 0.0
2019-Feb-10 00:00N 47°44' W 003°22'0 0.0
2019-Feb-09 23:30N 47°44' W 003°22'0 0.0
2019-Feb-09 23:00N 47°44' W 003°22'0 0.0
2019-Feb-09 22:30N 47°44' W 003°22'0 0.0
2019-Feb-09 22:00N 47°44' W 003°22'0 0.0
2019-Feb-09 21:30N 47°44' W 003°22'0 0.0
2019-Feb-09 21:00N 47°44' W 003°22'0 0.0
2019-Feb-09 20:30N 47°44' W 003°22'0 0.0
2019-Feb-09 20:00N 47°44' W 003°22'0 0.0
2019-Feb-09 19:30N 47°44' W 003°22'0 0.0
2019-Feb-09 19:00N 47°44' W 003°22'0 0.0
2019-Feb-09 18:30N 47°44' W 003°22'0 0.0
2019-Feb-09 18:00N 47°44' W 003°22'0 0.0
2019-Feb-09 17:30N 47°44' W 003°22'0 0.0
2019-Feb-09 17:00N 47°44' W 003°22'0 0.0
2019-Feb-09 16:30N 47°44' W 003°22'0 0.0
2019-Feb-09 16:00N 47°44' W 003°22'0 0.0
2019-Feb-09 15:30N 47°44' W 003°22'0 0.0
2019-Feb-09 15:00N 47°44' W 003°22'0 0.0
2019-Feb-09 14:30N 47°44' W 003°22'0 0.0
2019-Feb-09 14:00N 47°44' W 003°22'0 0.0
2019-Feb-09 13:30N 47°44' W 003°22'0 0.0
2019-Feb-09 13:00N 47°44' W 003°22'0 0.0
2019-Feb-09 12:30N 47°44' W 003°22'0 0.0
2019-Feb-09 12:00N 47°44' W 003°22'0 0.0
2019-Feb-09 11:30N 47°44' W 003°22'0 0.0
2019-Feb-09 11:00N 47°44' W 003°22'0 0.0
2019-Feb-09 10:30N 47°44' W 003°22'0 0.0
2019-Feb-09 10:00N 47°44' W 003°22'0 0.0
2019-Feb-09 09:30N 47°44' W 003°22'0 0.0
2019-Feb-09 09:00N 47°44' W 003°22'0 0.0
2019-Feb-09 08:30N 47°44' W 003°22'0 0.0
2019-Feb-09 08:00N 47°44' W 003°22'0 0.0
2019-Feb-09 07:30N 47°44' W 003°22'0 0.0
2019-Feb-09 07:00N 47°44' W 003°22'0 0.0
2019-Feb-09 06:30N 47°44' W 003°22'0 0.0
2019-Feb-09 06:00N 47°44' W 003°22'0 0.0
2019-Feb-09 05:30N 47°44' W 003°22'0 0.0
2019-Feb-09 05:00N 47°44' W 003°22'0 0.0
2019-Feb-09 04:30N 47°44' W 003°22'0 0.0
2019-Feb-09 04:00N 47°44' W 003°22'0 0.0
2019-Feb-09 03:30N 47°44' W 003°22'0 0.0
2019-Feb-09 03:00N 47°44' W 003°22'0 0.0
2019-Feb-09 02:30N 47°44' W 003°22'0 0.0
2019-Feb-09 02:00N 47°44' W 003°22'0 0.0
2019-Feb-09 01:30N 47°44' W 003°22'0 0.0
2019-Feb-09 01:00N 47°44' W 003°22'0 0.0
2019-Feb-09 00:30N 47°44' W 003°22'0 0.0
2019-Feb-09 00:00N 47°44' W 003°22'0 0.0
2019-Feb-08 23:30N 47°44' W 003°22'0 0.0
2019-Feb-08 23:00N 47°44' W 003°22'0 0.0
2019-Feb-08 22:30N 47°44' W 003°22'0 0.0
2019-Feb-08 22:00N 47°44' W 003°22'0 0.0
2019-Feb-08 21:30N 47°44' W 003°22'0 0.0
2019-Feb-08 21:00N 47°44' W 003°22'0 0.0
2019-Feb-08 20:30N 47°44' W 003°22'0 0.0
2019-Feb-08 20:00N 47°44' W 003°22'0 0.0
2019-Feb-08 19:30N 47°44' W 003°22'0 0.0
2019-Feb-08 19:00N 47°44' W 003°22'0 0.0
2019-Feb-08 18:30N 47°44' W 003°22'0 0.0
2019-Feb-08 18:00N 47°44' W 003°22'0 0.0
2019-Feb-08 17:30N 47°44' W 003°22'0 0.0
2019-Feb-08 17:00N 47°44' W 003°22'0 0.0
2019-Feb-08 16:30N 47°44' W 003°22'0 0.0
2019-Feb-08 16:00N 47°44' W 003°22'0 0.0
2019-Feb-08 15:30N 47°44' W 003°22'0 0.0
2019-Feb-08 15:00N 47°44' W 003°22'0 0.0
2019-Feb-08 14:30N 47°44' W 003°22'0 0.0
2019-Feb-08 14:00N 47°44' W 003°22'0 0.0
2019-Feb-08 13:30N 47°44' W 003°22'0 0.0
2019-Feb-08 13:00N 47°44' W 003°22'0 0.0
2019-Feb-08 12:30N 47°44' W 003°22'0 0.0
2019-Feb-08 12:00N 47°44' W 003°22'0 0.0
2019-Feb-08 11:30N 47°44' W 003°22'0 0.0
2019-Feb-08 11:00N 47°44' W 003°22'0 0.0
2019-Feb-08 10:30N 47°44' W 003°22'0 0.0
2019-Feb-08 10:00N 47°44' W 003°22'0 0.0
2019-Feb-08 09:30N 47°44' W 003°22'0 0.0
2019-Feb-08 09:00N 47°44' W 003°22'0 0.0
2019-Feb-08 08:30N 47°44' W 003°22'0 0.0
2019-Feb-07 16:44N 47°44' W 003°22'0 0.0
2019-Feb-07 16:30N 47°44' W 003°22'0 0.0
2019-Feb-07 16:00N 47°44' W 003°22'0 0.0
2019-Feb-07 08:17N 47°44' W 003°22'0 0.1
2019-Feb-07 08:01N 47°44' W 003°22'0 0.1
2019-Feb-07 07:31N 47°44' W 003°22'0 0.0
2019-Feb-07 07:00N 47°44' W 003°22'0 0.0
2019-Feb-07 06:31N 47°44' W 003°22'0 0.0
2019-Feb-07 06:01N 47°44' W 003°22'0 0.0
2019-Feb-07 05:31N 47°44' W 003°22'0 0.0
2019-Feb-07 05:01N 47°44' W 003°22'0 0.0
2019-Feb-07 04:31N 47°44' W 003°22'0 0.0
2019-Feb-07 04:01N 47°44' W 003°22'0 0.0
2019-Feb-07 03:31N 47°44' W 003°22'0 0.0
2019-Feb-07 03:01N 47°44' W 003°22'0 0.0
2019-Feb-07 02:30N 47°44' W 003°22'0 0.0
2019-Feb-07 02:01N 47°44' W 003°22'0 0.0
2019-Feb-07 01:30N 47°44' W 003°22'0 0.0
2019-Feb-07 01:01N 47°44' W 003°22'0 0.0
2019-Feb-07 00:31N 47°44' W 003°22'0 0.0
2019-Feb-07 00:01N 47°44' W 003°22'0 0.0
2019-Feb-06 23:31N 47°44' W 003°22'0 0.0
2019-Feb-06 23:00N 47°44' W 003°22'0 0.0
2019-Feb-06 22:30N 47°44' W 003°22'0 0.0
2019-Feb-06 22:01N 47°44' W 003°22'0 0.0
2019-Feb-06 21:31N 47°44' W 003°22'0 0.0
2019-Feb-06 21:01N 47°44' W 003°22'0 0.0
2019-Feb-06 20:31N 47°44' W 003°22'0 0.0
2019-Feb-06 20:01N 47°44' W 003°22'0 0.0
2019-Feb-06 19:31N 47°44' W 003°22'0 0.0
2019-Feb-06 19:01N 47°44' W 003°22'0 0.0
2019-Feb-06 18:31N 47°44' W 003°22'0 0.0
2019-Feb-06 18:01N 47°44' W 003°22'0 0.0
2019-Feb-06 17:31N 47°44' W 003°22'0 0.0
2019-Feb-06 17:01N 47°44' W 003°22'0 0.0
2019-Feb-06 16:31N 47°44' W 003°22'0 0.0
2019-Feb-06 16:01N 47°44' W 003°22'0 0.0
2019-Feb-06 15:30N 47°44' W 003°22'0 0.0
2019-Feb-06 15:01N 47°44' W 003°22'0 0.0
2019-Feb-06 14:31N 47°44' W 003°22'0 0.0
2019-Feb-06 14:01N 47°44' W 003°22'0 0.0
2019-Feb-06 13:30N 47°44' W 003°22'0 0.0
2019-Feb-06 13:01N 47°44' W 003°22'0 0.0
2019-Feb-06 12:31N 47°44' W 003°22'0 0.0
2019-Feb-06 12:01N 47°44' W 003°22'0 0.0
2019-Feb-06 11:31N 47°44' W 003°22'0 0.0
2019-Feb-06 11:01N 47°44' W 003°22'0 0.0
2019-Feb-06 10:31N 47°44' W 003°22'0 0.0
2019-Feb-06 10:01N 47°44' W 003°22'0 0.0
2019-Feb-06 09:31N 47°44' W 003°22'0 0.0
2019-Feb-06 09:00N 47°44' W 003°22'0 0.0
2019-Feb-06 08:30N 47°44' W 003°22'0 0.0
2019-Feb-06 08:00N 47°44' W 003°22'0 0.0
2019-Feb-06 07:30N 47°44' W 003°22'0 0.0
2019-Feb-06 07:00N 47°44' W 003°22'0 0.0
2019-Feb-06 06:30N 47°44' W 003°22'0 0.0
2019-Feb-06 06:00N 47°44' W 003°22'0 0.0
2019-Feb-06 05:31N 47°44' W 003°22'0 0.0
2019-Feb-06 05:00N 47°44' W 003°22'0 0.0
2019-Feb-06 04:30N 47°44' W 003°22'0 0.0
2019-Feb-06 04:01N 47°44' W 003°22'0 0.0
2019-Feb-06 03:30N 47°44' W 003°22'  

Dump ship's entire track history